createdAt,value
2022-12-04T00:01:57.014Z,14.03
2022-12-04T00:04:42.245Z,14.57
2022-12-04T00:07:25.964Z,14.87
2022-12-04T00:10:11.176Z,15.37
2022-12-04T00:12:56.066Z,15.57
2022-12-04T00:15:43.235Z,14.80
2022-12-04T00:18:27.102Z,15.97
2022-12-04T00:21:14.236Z,15.60
2022-12-04T00:23:58.120Z,15.90
2022-12-04T00:26:41.921Z,14.80
2022-12-04T00:29:25.699Z,13.67
2022-12-04T00:32:09.503Z,0.30
2022-12-04T00:34:53.706Z,2.30
2022-12-04T00:37:38.913Z,15.30
2022-12-04T00:40:22.761Z,13.77
2022-12-04T00:43:06.506Z,15.13
2022-12-04T00:45:50.719Z,15.07
2022-12-04T00:48:34.964Z,12.57
2022-12-04T00:51:21.094Z,13.47
2022-12-04T00:54:06.299Z,14.17
2022-12-04T00:56:50.068Z,13.27
2022-12-04T00:59:33.733Z,13.60
2022-12-04T01:02:17.661Z,13.10
2022-12-04T01:05:02.336Z,13.23
2022-12-04T01:07:47.681Z,14.87
2022-12-04T01:10:32.818Z,13.73
2022-12-04T01:13:16.569Z,15.00
2022-12-04T01:16:00.257Z,15.73
2022-12-04T01:18:44.106Z,17.00
2022-12-04T01:21:27.880Z,15.80
2022-12-04T01:24:11.707Z,16.67
2022-12-04T01:26:56.850Z,15.40
2022-12-04T01:29:40.578Z,14.87
2022-12-04T01:32:24.358Z,20.53
2022-12-04T01:35:08.902Z,20.93
2022-12-04T01:37:53.014Z,20.07
2022-12-04T01:40:36.853Z,20.00
2022-12-04T01:43:22.620Z,21.47
2022-12-04T01:46:07.730Z,18.33
2022-12-04T01:48:54.067Z,19.23
2022-12-04T01:51:43.843Z,16.77
2022-12-04T01:54:31.443Z,17.13
2022-12-04T01:57:17.569Z,15.80
2022-12-04T02:00:08.192Z,15.43
2022-12-04T02:02:52.159Z,15.13
2022-12-04T02:05:36.090Z,15.70
2022-12-04T02:08:20.496Z,15.87
2022-12-04T02:11:13.532Z,15.43
2022-12-04T02:14:26.543Z,14.47
2022-12-04T02:17:21.761Z,15.27
2022-12-04T02:20:16.257Z,14.30
2022-12-04T02:23:24.404Z,14.57
2022-12-04T02:26:31.759Z,13.80
2022-12-04T02:29:25.022Z,14.70
2022-12-04T02:32:18.707Z,15.47
2022-12-04T02:35:07.496Z,15.23
2022-12-04T02:37:55.995Z,15.57
2022-12-04T02:40:46.573Z,15.67
2022-12-04T02:43:38.090Z,18.33
2022-12-04T02:46:29.749Z,17.80
2022-12-04T02:49:18.766Z,15.93
2022-12-04T02:52:04.599Z,16.57
2022-12-04T02:54:55.408Z,15.73
2022-12-04T02:57:44.434Z,17.87
2022-12-04T03:00:30.386Z,15.50
2022-12-04T03:03:21.870Z,14.13
2022-12-04T03:06:09.277Z,14.00
2022-12-04T03:08:59.824Z,13.27
2022-12-04T03:11:48.424Z,12.70
2022-12-04T03:14:36.228Z,13.57
2022-12-04T03:17:24.281Z,13.50
2022-12-04T03:20:14.462Z,14.97
2022-12-04T03:23:03.677Z,13.53
2022-12-04T03:25:54.435Z,14.60
2022-12-04T03:28:47.953Z,13.80
2022-12-04T03:31:40.715Z,13.40
2022-12-04T03:34:29.091Z,15.50
2022-12-04T03:37:18.468Z,15.03
2022-12-04T03:40:08.229Z,14.30
2022-12-04T03:43:01.220Z,13.27
2022-12-04T03:45:49.429Z,19.77
2022-12-04T03:48:41.020Z,19.43
2022-12-04T03:51:33.498Z,14.00
2022-12-04T03:54:23.880Z,14.90
2022-12-04T03:57:15.638Z,15.53
2022-12-04T04:00:06.213Z,15.57
2022-12-04T04:02:54.950Z,14.47
2022-12-04T04:05:43.129Z,15.63
2022-12-04T04:08:34.229Z,16.33
2022-12-04T04:11:24.870Z,15.43
2022-12-04T04:14:30.662Z,13.73
2022-12-04T04:17:38.648Z,15.07
2022-12-04T04:20:45.541Z,16.57
2022-12-04T04:23:50.150Z,14.93
2022-12-04T04:26:40.352Z,14.50
2022-12-04T04:29:24.099Z,17.33
2022-12-04T04:32:15.254Z,21.13
2022-12-04T04:35:04.877Z,18.03
2022-12-04T04:37:56.616Z,17.77
2022-12-04T04:40:47.886Z,20.17
2022-12-04T04:43:38.223Z,16.30
2022-12-04T04:46:26.805Z,15.17
2022-12-04T04:49:13.568Z,13.67
2022-12-04T04:51:58.570Z,17.90
2022-12-04T04:54:43.112Z,15.40
2022-12-04T04:57:28.617Z,19.77
2022-12-04T05:00:16.929Z,20.40
2022-12-04T05:03:00.902Z,18.13
2022-12-04T05:05:44.758Z,19.37
2022-12-04T05:08:28.572Z,18.13
2022-12-04T05:11:14.182Z,20.10
2022-12-04T05:13:58.071Z,14.63
2022-12-04T05:16:43.302Z,20.00
2022-12-04T05:19:44.746Z,16.10
2022-12-04T05:22:30.443Z,19.43
2022-12-04T05:25:14.265Z,19.00
2022-12-04T05:27:58.363Z,21.10
2022-12-04T05:30:42.715Z,18.67
2022-12-04T05:33:28.113Z,21.03
2022-12-04T05:36:13.326Z,19.00
2022-12-04T05:38:57.084Z,25.90
2022-12-04T05:41:40.973Z,19.33
2022-12-04T05:44:25.175Z,20.97
2022-12-04T05:47:09.205Z,22.13
2022-12-04T05:49:54.685Z,21.10
2022-12-04T05:52:38.942Z,20.90
2022-12-04T05:55:22.722Z,20.60
2022-12-04T05:58:06.596Z,20.63
2022-12-04T06:00:50.316Z,22.27
2022-12-04T06:03:34.161Z,18.70
2022-12-04T06:06:22.671Z,22.17
2022-12-04T06:09:08.423Z,23.13
2022-12-04T06:11:52.115Z,19.90
2022-12-04T06:14:39.539Z,20.20
2022-12-04T06:17:23.873Z,18.67
2022-12-04T06:20:11.774Z,20.87
2022-12-04T06:22:57.189Z,17.17
2022-12-04T06:25:40.970Z,17.03
2022-12-04T06:28:24.710Z,30.00
2022-12-04T06:31:11.159Z,28.20
2022-12-04T06:33:55.458Z,31.37
2022-12-04T06:36:39.274Z,33.70
2022-12-04T06:39:24.424Z,29.73
2022-12-04T06:42:08.488Z,30.23
2022-12-04T06:44:52.107Z,21.80
2022-12-04T06:47:36.379Z,10.30
2022-12-04T06:50:20.376Z,13.87
2022-12-04T06:53:08.307Z,13.23
2022-12-04T06:55:53.903Z,15.67
2022-12-04T06:58:38.742Z,18.07
2022-12-04T07:01:24.438Z,16.10
2022-12-04T07:04:08.388Z,10.63
2022-12-04T07:06:52.312Z,12.87
2022-12-04T07:09:36.125Z,9.20
2022-12-04T07:12:21.323Z,11.67
2022-12-04T07:15:05.750Z,9.13
2022-12-04T07:17:49.645Z,10.10
2022-12-04T07:20:33.541Z,10.90
2022-12-04T07:23:17.358Z,19.40
2022-12-04T07:26:05.820Z,16.03
2022-12-04T07:28:51.545Z,17.33
2022-12-04T07:31:35.963Z,11.90
2022-12-04T07:34:20.053Z,12.73
2022-12-04T07:37:04.385Z,12.10
2022-12-04T07:39:48.212Z,12.13
2022-12-04T07:42:31.952Z,8.77
2022-12-04T07:45:17.294Z,10.40
2022-12-04T07:48:01.130Z,12.03
2022-12-04T07:50:45.762Z,8.67
2022-12-04T07:53:29.535Z,9.07
2022-12-04T07:56:14.353Z,13.33
2022-12-04T07:58:59.557Z,13.00
2022-12-04T08:01:45.083Z,12.87
2022-12-04T08:04:29.049Z,15.17
2022-12-04T08:07:12.903Z,10.57
2022-12-04T08:09:57.096Z,14.60
2022-12-04T08:12:41.259Z,11.47
2022-12-04T08:15:25.072Z,12.53
2022-12-04T08:18:10.899Z,17.83
2022-12-04T08:20:55.197Z,14.53
2022-12-04T08:23:39.935Z,8.97
2022-12-04T08:26:26.015Z,17.83
2022-12-04T08:29:11.183Z,16.13
2022-12-04T08:31:55.999Z,13.43
2022-12-04T08:34:41.784Z,10.67
2022-12-04T08:37:29.307Z,8.13
2022-12-04T08:40:18.651Z,9.57
2022-12-04T08:43:07.665Z,8.70
2022-12-04T08:45:59.220Z,19.57
2022-12-04T08:48:45.140Z,14.67
2022-12-04T08:51:39.010Z,10.60
2022-12-04T08:54:25.722Z,22.40
2022-12-04T08:57:10.584Z,17.90
2022-12-04T08:59:55.684Z,14.70
2022-12-04T09:02:44.913Z,13.43
2022-12-04T09:05:32.115Z,18.23
2022-12-04T09:08:27.189Z,17.00
2022-12-04T09:11:16.111Z,10.57
2022-12-04T09:14:07.930Z,6.93
2022-12-04T09:16:53.460Z,18.30
2022-12-04T09:19:44.031Z,12.50
2022-12-04T09:22:51.334Z,7.57
2022-12-04T09:25:41.354Z,11.83
2022-12-04T09:31:26.566Z,7.17
2022-12-04T09:34:11.728Z,8.27
2022-12-04T09:36:56.951Z,8.00
2022-12-04T09:39:42.947Z,10.23
2022-12-04T09:42:38.036Z,8.30
2022-12-04T09:45:26.236Z,12.00
2022-12-04T09:48:14.581Z,18.40
2022-12-04T09:51:00.750Z,12.70
2022-12-04T09:53:49.701Z,14.57
2022-12-04T09:56:35.263Z,10.50
2022-12-04T09:59:25.619Z,12.67
2022-12-04T10:02:30.735Z,11.07
2022-12-04T10:05:22.720Z,14.27
2022-12-04T10:08:17.550Z,10.37
2022-12-04T10:11:11.432Z,17.93
2022-12-04T10:14:16.601Z,9.70
2022-12-04T10:17:32.478Z,11.63
2022-12-04T10:20:30.045Z,11.07
2022-12-04T10:23:25.454Z,15.53
2022-12-04T10:26:18.100Z,19.63
2022-12-04T10:29:06.436Z,21.67
2022-12-04T10:31:54.485Z,21.40
2022-12-04T10:34:45.635Z,12.17
2022-12-04T10:37:37.458Z,15.07
2022-12-04T10:40:28.953Z,11.17
2022-12-04T10:43:20.600Z,13.70
2022-12-04T10:46:07.253Z,14.20
2022-12-04T10:48:55.738Z,12.63
2022-12-04T10:51:44.708Z,13.00
2022-12-04T10:54:35.817Z,6.03
2022-12-04T10:57:21.232Z,13.53
2022-12-04T11:00:26.292Z,11.10
2022-12-04T11:03:24.714Z,6.90
2022-12-04T11:06:12.738Z,13.43
2022-12-04T11:09:03.389Z,11.67
2022-12-04T11:11:48.914Z,13.43
2022-12-04T11:14:34.378Z,9.13
2022-12-04T11:17:22.616Z,14.03
2022-12-04T11:20:15.093Z,13.33
2022-12-04T11:23:01.664Z,12.83
2022-12-04T11:25:51.725Z,12.47
2022-12-04T11:28:42.675Z,10.90
2022-12-04T11:31:28.503Z,10.57
2022-12-04T11:34:21.178Z,19.17
2022-12-04T11:37:08.879Z,7.20
2022-12-04T11:39:56.458Z,8.67
2022-12-04T11:42:43.377Z,10.90
2022-12-04T11:45:27.748Z,12.07
2022-12-04T11:48:18.359Z,11.57
2022-12-04T11:51:19.071Z,10.10
2022-12-04T11:54:12.379Z,10.93
2022-12-04T11:57:09.155Z,15.30
2022-12-04T12:00:10.050Z,11.47
2022-12-04T12:03:08.690Z,14.67
2022-12-04T12:06:09.288Z,9.10
2022-12-04T12:09:10.769Z,10.70
2022-12-04T12:12:03.312Z,7.17
2022-12-04T12:15:00.515Z,11.60
2022-12-04T12:17:52.842Z,12.33
2022-12-04T12:20:43.812Z,12.33
2022-12-04T12:23:45.760Z,8.97
2022-12-04T12:26:39.860Z,10.93
2022-12-04T12:29:41.042Z,11.33
2022-12-04T12:32:39.605Z,11.33
2022-12-04T12:35:32.097Z,15.20
2022-12-04T12:38:21.931Z,10.03
2022-12-04T12:41:13.169Z,12.50
2022-12-04T12:44:04.975Z,12.37
2022-12-04T12:46:54.292Z,12.33
2022-12-04T12:49:48.607Z,12.70
2022-12-04T12:52:41.766Z,17.27
2022-12-04T12:55:30.591Z,10.17
2022-12-04T12:58:19.003Z,15.07
2022-12-04T13:01:10.413Z,15.13
2022-12-04T13:04:07.224Z,9.67
2022-12-04T13:07:00.954Z,10.00
2022-12-04T13:09:54.071Z,11.67
2022-12-04T13:12:47.204Z,12.80
2022-12-04T13:15:40.520Z,7.77
2022-12-04T13:18:30.244Z,11.27
2022-12-04T13:21:30.853Z,14.33
2022-12-04T13:24:39.662Z,14.53
2022-12-04T13:27:34.866Z,12.07
2022-12-04T13:30:22.689Z,9.43
2022-12-04T13:33:53.604Z,10.73
2022-12-04T13:36:58.366Z,7.70
2022-12-04T13:40:28.966Z,15.27
2022-12-04T13:43:27.407Z,20.90
2022-12-04T13:46:30.987Z,16.70
2022-12-04T13:49:29.147Z,10.23
2022-12-04T13:52:25.838Z,7.30
2022-12-04T13:55:26.732Z,8.50
2022-12-04T13:58:30.735Z,6.23
2022-12-04T14:01:28.173Z,9.33
2022-12-04T14:04:26.601Z,7.63
2022-12-04T14:07:27.328Z,7.63
2022-12-04T14:10:30.191Z,12.43
2022-12-04T14:13:22.316Z,12.90
2022-12-04T14:16:21.392Z,19.47
2022-12-04T14:19:08.599Z,19.37
2022-12-04T14:21:54.368Z,10.33
2022-12-04T14:24:40.077Z,16.10
2022-12-04T14:27:35.250Z,16.87
2022-12-04T14:30:21.985Z,11.87
2022-12-04T14:33:13.585Z,15.93
2022-12-04T14:36:03.899Z,20.40
2022-12-04T14:38:50.508Z,23.77
2022-12-04T14:41:34.567Z,15.93
2022-12-04T14:44:26.908Z,35.80
2022-12-04T14:47:23.410Z,16.70
2022-12-04T14:50:29.476Z,14.83
2022-12-04T14:53:25.131Z,15.67
2022-12-04T14:56:25.897Z,14.53
2022-12-04T14:59:18.028Z,11.60
2022-12-04T15:02:02.148Z,10.97
2022-12-04T15:04:47.711Z,12.93
2022-12-04T15:07:33.691Z,8.30
2022-12-04T15:10:41.509Z,7.80
2022-12-04T15:13:29.280Z,6.97
2022-12-04T15:16:18.674Z,24.43
2022-12-04T15:19:02.811Z,14.33
2022-12-04T15:21:46.860Z,12.60
2022-12-04T15:24:32.654Z,13.57
2022-12-04T15:27:20.709Z,8.30
2022-12-04T15:30:05.785Z,9.73
2022-12-04T15:32:53.102Z,11.13
2022-12-04T15:35:39.161Z,18.87
2022-12-04T15:38:23.400Z,14.17
2022-12-04T15:41:26.213Z,18.33
2022-12-04T15:44:24.098Z,19.47
2022-12-04T15:47:18.955Z,8.70
2022-12-04T15:50:10.793Z,10.47
2022-12-04T15:52:59.894Z,9.57
2022-12-04T15:55:52.410Z,7.33
2022-12-04T15:58:40.028Z,8.63
2022-12-04T16:01:24.256Z,8.80
2022-12-04T16:04:22.551Z,12.53
2022-12-04T16:07:21.873Z,5.87
2022-12-04T16:10:22.740Z,8.40
2022-12-04T16:13:07.363Z,8.27
2022-12-04T16:15:52.901Z,4.57
2022-12-04T16:18:37.021Z,4.60
2022-12-04T16:21:24.297Z,8.83
2022-12-04T16:24:11.704Z,9.63
2022-12-04T16:26:57.217Z,6.67
2022-12-04T16:29:41.229Z,10.43
2022-12-04T16:32:32.077Z,10.30
2022-12-04T16:35:17.853Z,10.03
2022-12-04T16:38:01.798Z,19.27
2022-12-04T16:40:46.940Z,11.90
2022-12-04T16:43:30.906Z,7.43
2022-12-04T16:46:16.975Z,8.93
2022-12-04T16:49:07.280Z,9.00
2022-12-04T16:51:51.713Z,3.50
2022-12-04T16:54:35.955Z,6.73
2022-12-04T16:57:19.853Z,5.10
2022-12-04T17:00:03.945Z,8.33
2022-12-04T17:02:48.504Z,3.50
2022-12-04T17:05:35.934Z,6.13
2022-12-04T17:08:20.158Z,5.17
2022-12-04T17:11:04.269Z,4.57
2022-12-04T17:13:48.344Z,7.67
2022-12-04T17:16:32.337Z,6.33
2022-12-04T17:19:16.761Z,8.53
2022-12-04T17:22:02.519Z,9.00
2022-12-04T17:24:52.881Z,10.63
2022-12-04T17:27:38.848Z,9.30
2022-12-04T17:30:22.911Z,9.17
2022-12-04T17:33:07.303Z,5.60
2022-12-04T17:35:50.992Z,6.23
2022-12-04T17:38:37.852Z,8.47
2022-12-04T17:41:21.610Z,4.77
2022-12-04T17:44:05.859Z,5.40
2022-12-04T17:46:50.334Z,6.20
2022-12-04T17:49:34.820Z,7.67
2022-12-04T17:52:22.507Z,7.57
2022-12-04T17:55:09.071Z,6.27
2022-12-04T17:57:53.326Z,7.60
2022-12-04T18:00:38.179Z,10.43
2022-12-04T18:03:22.270Z,6.43
2022-12-04T18:06:13.629Z,7.13
2022-12-04T18:08:58.373Z,7.77
2022-12-04T18:11:45.695Z,6.27
2022-12-04T18:14:30.917Z,17.33
2022-12-04T18:17:17.750Z,7.10
2022-12-04T18:20:05.009Z,7.67
2022-12-04T18:22:49.747Z,8.00
2022-12-04T18:25:34.042Z,6.83
2022-12-04T18:28:19.570Z,8.10
2022-12-04T18:31:05.337Z,6.57
2022-12-04T18:33:49.493Z,6.03
2022-12-04T18:36:33.781Z,6.23
2022-12-04T18:39:19.971Z,6.53
2022-12-04T18:42:03.872Z,6.23
2022-12-04T18:44:49.692Z,6.80
2022-12-04T18:47:33.542Z,7.70
2022-12-04T18:50:17.756Z,5.67
2022-12-04T18:53:02.000Z,4.17
2022-12-04T18:55:45.784Z,5.67
2022-12-04T18:58:29.646Z,3.93
2022-12-04T19:01:16.748Z,4.20
2022-12-04T19:04:03.166Z,5.17
2022-12-04T19:06:50.630Z,4.07
2022-12-04T19:10:09.573Z,6.03
2022-12-04T19:12:39.903Z,6.07
2022-12-04T19:15:24.026Z,7.50
2022-12-04T19:18:09.403Z,7.27
2022-12-04T19:20:53.613Z,5.60
2022-12-04T19:23:37.517Z,7.60
2022-12-04T19:26:22.732Z,4.70
2022-12-04T19:29:08.625Z,7.03
2022-12-04T19:31:57.740Z,5.37
2022-12-04T19:34:44.673Z,5.53
2022-12-04T19:37:29.031Z,7.40
2022-12-04T19:40:14.752Z,6.77
2022-12-04T19:43:02.818Z,5.90
2022-12-04T19:45:49.473Z,6.17
2022-12-04T19:48:33.683Z,6.27
2022-12-04T19:51:20.308Z,7.00
2022-12-04T19:54:04.510Z,4.27
2022-12-04T19:56:52.655Z,5.57
2022-12-04T19:59:39.507Z,4.53
2022-12-04T20:02:25.852Z,4.23
2022-12-04T20:05:10.546Z,5.40
2022-12-04T20:10:40.969Z,6.50
2022-12-04T20:13:25.696Z,5.60
2022-12-04T20:16:12.088Z,5.10
2022-12-04T20:18:56.181Z,6.20
2022-12-04T20:21:40.222Z,5.27
2022-12-04T20:24:25.432Z,5.47
2022-12-04T20:27:09.292Z,6.37
2022-12-04T20:29:53.909Z,6.20
2022-12-04T20:32:37.887Z,6.23
2022-12-04T20:35:21.622Z,6.60
2022-12-04T20:38:05.973Z,11.00
2022-12-04T20:40:51.132Z,6.50
2022-12-04T20:43:35.241Z,5.60
2022-12-04T20:46:20.946Z,8.93
2022-12-04T20:49:07.117Z,3.90
2022-12-04T20:51:51.823Z,4.90
2022-12-04T20:54:41.381Z,5.17
2022-12-04T20:57:26.815Z,6.33
2022-12-04T21:00:11.632Z,5.07
2022-12-04T21:02:55.465Z,4.70
2022-12-04T21:05:39.462Z,4.00
2022-12-04T21:08:43.212Z,4.80
2022-12-04T21:11:30.076Z,5.70
2022-12-04T21:14:34.484Z,6.97
2022-12-04T21:17:20.489Z,6.47
2022-12-04T21:20:07.875Z,6.17
2022-12-04T21:22:52.108Z,4.20
2022-12-04T21:25:37.241Z,6.60
2022-12-04T21:28:21.159Z,4.73
2022-12-04T21:31:07.489Z,6.97
2022-12-04T21:33:51.617Z,5.90
2022-12-04T21:36:35.816Z,5.37
2022-12-04T21:39:19.817Z,7.17
2022-12-04T21:42:21.225Z,4.93
2022-12-04T21:45:07.664Z,5.27
2022-12-04T21:47:54.783Z,6.10
2022-12-04T21:50:38.794Z,5.10
2022-12-04T21:53:22.889Z,3.83
2022-12-04T21:56:07.478Z,5.43
2022-12-04T21:58:51.536Z,5.93
2022-12-04T22:01:35.473Z,7.43
2022-12-04T22:04:21.379Z,7.43
2022-12-04T22:07:05.057Z,4.93
2022-12-04T22:09:48.876Z,5.60
2022-12-04T22:12:49.028Z,5.50
2022-12-04T22:15:39.152Z,3.13
2022-12-04T22:18:23.189Z,4.63
2022-12-04T22:21:09.983Z,4.07
2022-12-04T22:23:56.708Z,3.97
2022-12-04T22:26:40.586Z,5.47
2022-12-04T22:29:49.096Z,5.10
2022-12-04T22:32:28.227Z,4.87
2022-12-04T22:35:12.112Z,6.03
2022-12-04T22:37:57.157Z,5.30
2022-12-04T22:40:41.074Z,5.80
2022-12-04T22:43:24.829Z,5.53
2022-12-04T22:46:08.766Z,5.30
2022-12-04T22:48:52.530Z,4.23
2022-12-04T22:51:36.370Z,4.70
2022-12-04T22:54:21.532Z,5.47
2022-12-04T22:57:05.538Z,4.50
2022-12-04T22:59:49.433Z,4.63
2022-12-04T23:02:34.257Z,3.43
2022-12-04T23:05:18.217Z,4.53
2022-12-04T23:08:02.141Z,3.93
2022-12-04T23:10:47.235Z,5.70
2022-12-04T23:13:31.025Z,3.83
2022-12-04T23:16:19.837Z,6.13
2022-12-04T23:19:05.016Z,4.20
2022-12-04T23:21:56.601Z,3.93
2022-12-04T23:24:41.587Z,4.27
2022-12-04T23:27:27.158Z,4.13
2022-12-04T23:30:11.345Z,4.13
2022-12-04T23:32:55.299Z,3.27
2022-12-04T23:35:39.266Z,3.80
2022-12-04T23:38:24.324Z,5.63
2022-12-04T23:41:12.001Z,6.23
2022-12-04T23:43:57.854Z,5.97
2022-12-04T23:46:42.072Z,4.67
2022-12-04T23:49:26.092Z,4.63
2022-12-04T23:52:10.105Z,6.53
2022-12-04T23:54:54.166Z,5.83
2022-12-04T23:57:38.270Z,5.17
